sensor_id;sensor_type;location;lat;lon;timestamp;temperature;humidity
21823;DHT22;11074;48.596;9.238;2022-12-18T00:02:04;-5.80;99.90
21823;DHT22;11074;48.596;9.238;2022-12-18T00:04:30;-5.90;99.90
21823;DHT22;11074;48.596;9.238;2022-12-18T00:06:56;-6.10;99.90
21823;DHT22;11074;48.596;9.238;2022-12-18T00:09:22;-5.80;99.90
21823;DHT22;11074;48.596;9.238;2022-12-18T00:11:47;-5.70;99.90
21823;DHT22;11074;48.596;9.238;2022-12-18T00:14:14;-5.60;99.90
21823;DHT22;11074;48.596;9.238;2022-12-18T00:16:42;-5.50;99.90
21823;DHT22;11074;48.596;9.238;2022-12-18T00:19:10;-5.50;99.90
21823;DHT22;11074;48.596;9.238;2022-12-18T00:21:36;-5.40;99.90
21823;DHT22;11074;48.596;9.238;2022-12-18T00:24:02;-5.40;99.90
21823;DHT22;11074;48.596;9.238;2022-12-18T00:26:30;-5.40;99.90
21823;DHT22;11074;48.596;9.238;2022-12-18T00:29:02;-5.50;99.90
21823;DHT22;11074;48.596;9.238;2022-12-18T00:31:34;-5.40;99.90
21823;DHT22;11074;48.596;9.238;2022-12-18T00:34:00;-5.40;99.90
21823;DHT22;11074;48.596;9.238;2022-12-18T00:36:29;-5.50;99.90
21823;DHT22;11074;48.596;9.238;2022-12-18T00:38:58;-5.50;99.90
21823;DHT22;11074;48.596;9.238;2022-12-18T00:41:26;-5.60;99.90
21823;DHT22;11074;48.596;9.238;2022-12-18T00:44:13;-5.70;99.90
21823;DHT22;11074;48.596;9.238;2022-12-18T00:46:41;-6.00;99.90
21823;DHT22;11074;48.596;9.238;2022-12-18T00:49:07;-6.10;99.90
21823;DHT22;11074;48.596;9.238;2022-12-18T00:51:33;-6.20;99.90
21823;DHT22;11074;48.596;9.238;2022-12-18T00:53:59;-6.30;99.90
21823;DHT22;11074;48.596;9.238;2022-12-18T00:56:25;-6.40;99.90
21823;DHT22;11074;48.596;9.238;2022-12-18T00:58:50;-6.60;99.90
21823;DHT22;11074;48.596;9.238;2022-12-18T01:01:16;-6.70;99.90
21823;DHT22;11074;48.596;9.238;2022-12-18T01:03:43;-6.60;99.90
21823;DHT22;11074;48.596;9.238;2022-12-18T01:06:12;-6.50;99.90
21823;DHT22;11074;48.596;9.238;2022-12-18T01:08:38;-6.50;99.90
21823;DHT22;11074;48.596;9.238;2022-12-18T01:11:13;-6.60;99.90
21823;DHT22;11074;48.596;9.238;2022-12-18T01:13:41;-6.40;99.90
21823;DHT22;11074;48.596;9.238;2022-12-18T01:16:07;-6.40;99.90
21823;DHT22;11074;48.596;9.238;2022-12-18T01:18:34;-6.30;99.90
21823;DHT22;11074;48.596;9.238;2022-12-18T01:21:00;-6.40;99.90
21823;DHT22;11074;48.596;9.238;2022-12-18T01:23:30;-6.60;99.90
21823;DHT22;11074;48.596;9.238;2022-12-18T01:25:56;-6.70;99.90
21823;DHT22;11074;48.596;9.238;2022-12-18T01:28:21;-6.60;99.90
21823;DHT22;11074;48.596;9.238;2022-12-18T01:30:47;-6.50;99.90
21823;DHT22;11074;48.596;9.238;2022-12-18T01:33:12;-6.30;99.90
21823;DHT22;11074;48.596;9.238;2022-12-18T01:35:42;-6.30;99.90
21823;DHT22;11074;48.596;9.238;2022-12-18T01:38:08;-6.40;99.90
21823;DHT22;11074;48.596;9.238;2022-12-18T01:40:34;-6.60;99.90
21823;DHT22;11074;48.596;9.238;2022-12-18T01:43:00;-6.50;99.90
21823;DHT22;11074;48.596;9.238;2022-12-18T01:45:28;-6.40;99.90
21823;DHT22;11074;48.596;9.238;2022-12-18T01:50:34;-6.30;99.90
21823;DHT22;11074;48.596;9.238;2022-12-18T01:53:25;-6.40;99.90
21823;DHT22;11074;48.596;9.238;2022-12-18T01:55:56;-6.60;99.90
21823;DHT22;11074;48.596;9.238;2022-12-18T01:59:02;-6.60;99.90
21823;DHT22;11074;48.596;9.238;2022-12-18T02:01:32;-6.50;99.90
21823;DHT22;11074;48.596;9.238;2022-12-18T02:04:25;-6.60;99.90
21823;DHT22;11074;48.596;9.238;2022-12-18T02:10:20;-6.60;99.90
21823;DHT22;11074;48.596;9.238;2022-12-18T02:18:32;-6.60;99.90
21823;DHT22;11074;48.596;9.238;2022-12-18T02:27:03;-6.50;99.90
21823;DHT22;11074;48.596;9.238;2022-12-18T02:29:40;-6.50;99.90
21823;DHT22;11074;48.596;9.238;2022-12-18T02:32:18;-6.60;99.90
21823;DHT22;11074;48.596;9.238;2022-12-18T02:34:49;-6.50;99.90
21823;DHT22;11074;48.596;9.238;2022-12-18T02:37:18;-6.60;99.90
21823;DHT22;11074;48.596;9.238;2022-12-18T02:39:47;-6.50;99.90
21823;DHT22;11074;48.596;9.238;2022-12-18T02:42:15;-6.40;99.90
21823;DHT22;11074;48.596;9.238;2022-12-18T02:44:47;-6.50;99.90
21823;DHT22;11074;48.596;9.238;2022-12-18T02:47:18;-6.40;99.90
21823;DHT22;11074;48.596;9.238;2022-12-18T02:53:23;-6.50;99.90
21823;DHT22;11074;48.596;9.238;2022-12-18T03:01:33;-6.50;99.90
21823;DHT22;11074;48.596;9.238;2022-12-18T03:04:42;-6.50;99.90
21823;DHT22;11074;48.596;9.238;2022-12-18T03:07:21;-6.60;99.90
21823;DHT22;11074;48.596;9.238;2022-12-18T03:09:53;-6.60;99.90
21823;DHT22;11074;48.596;9.238;2022-12-18T03:12:27;-6.60;99.90
21823;DHT22;11074;48.596;9.238;2022-12-18T03:15:11;-6.70;99.90
21823;DHT22;11074;48.596;9.238;2022-12-18T03:17:46;-6.70;99.90
21823;DHT22;11074;48.596;9.238;2022-12-18T03:20:18;-6.70;99.90
21823;DHT22;11074;48.596;9.238;2022-12-18T03:22:51;-6.80;99.90
21823;DHT22;11074;48.596;9.238;2022-12-18T03:25:23;-6.70;99.90
21823;DHT22;11074;48.596;9.238;2022-12-18T03:27:55;-6.90;99.90
21823;DHT22;11074;48.596;9.238;2022-12-18T03:30:26;-6.80;99.90
21823;DHT22;11074;48.596;9.238;2022-12-18T03:33:18;-6.80;99.90
21823;DHT22;11074;48.596;9.238;2022-12-18T03:35:49;-7.10;99.90
21823;DHT22;11074;48.596;9.238;2022-12-18T03:38:15;-7.20;99.90
21823;DHT22;11074;48.596;9.238;2022-12-18T03:41:26;-7.30;99.90
21823;DHT22;11074;48.596;9.238;2022-12-18T03:44:03;-7.40;99.90
21823;DHT22;11074;48.596;9.238;2022-12-18T03:46:51;-7.40;99.90
21823;DHT22;11074;48.596;9.238;2022-12-18T03:50:10;-7.50;99.90
21823;DHT22;11074;48.596;9.238;2022-12-18T03:52:48;-7.50;99.90
21823;DHT22;11074;48.596;9.238;2022-12-18T03:55:19;-7.30;99.90
21823;DHT22;11074;48.596;9.238;2022-12-18T03:57:48;-7.20;99.90
21823;DHT22;11074;48.596;9.238;2022-12-18T04:00:18;-7.50;99.90
21823;DHT22;11074;48.596;9.238;2022-12-18T04:02:53;-7.60;99.90
21823;DHT22;11074;48.596;9.238;2022-12-18T04:05:22;-7.50;99.90
21823;DHT22;11074;48.596;9.238;2022-12-18T04:07:51;-7.40;99.90
21823;DHT22;11074;48.596;9.238;2022-12-18T04:10:19;-7.40;99.90
21823;DHT22;11074;48.596;9.238;2022-12-18T04:12:45;-7.40;99.90
21823;DHT22;11074;48.596;9.238;2022-12-18T04:15:11;-7.60;99.90
21823;DHT22;11074;48.596;9.238;2022-12-18T04:17:38;-7.70;99.90
21823;DHT22;11074;48.596;9.238;2022-12-18T04:20:09;-7.50;99.90
21823;DHT22;11074;48.596;9.238;2022-12-18T04:22:35;-7.30;99.90
21823;DHT22;11074;48.596;9.238;2022-12-18T04:25:00;-7.20;99.90
21823;DHT22;11074;48.596;9.238;2022-12-18T04:27:26;-7.30;99.90
21823;DHT22;11074;48.596;9.238;2022-12-18T04:29:52;-7.40;99.90
21823;DHT22;11074;48.596;9.238;2022-12-18T04:32:17;-7.30;99.90
21823;DHT22;11074;48.596;9.238;2022-12-18T04:34:43;-7.20;99.90
21823;DHT22;11074;48.596;9.238;2022-12-18T04:37:09;-7.40;99.90
21823;DHT22;11074;48.596;9.238;2022-12-18T04:39:34;-7.60;99.90
21823;DHT22;11074;48.596;9.238;2022-12-18T04:42:01;-7.50;99.90
21823;DHT22;11074;48.596;9.238;2022-12-18T04:44:26;-7.40;99.90
21823;DHT22;11074;48.596;9.238;2022-12-18T04:46:52;-7.40;99.90
21823;DHT22;11074;48.596;9.238;2022-12-18T04:49:18;-7.60;99.90
21823;DHT22;11074;48.596;9.238;2022-12-18T04:51:43;-7.50;99.90
21823;DHT22;11074;48.596;9.238;2022-12-18T04:54:09;-7.40;99.90
21823;DHT22;11074;48.596;9.238;2022-12-18T04:56:35;-7.60;99.90
21823;DHT22;11074;48.596;9.238;2022-12-18T04:59:00;-7.70;99.90
21823;DHT22;11074;48.596;9.238;2022-12-18T05:01:26;-7.70;99.90
21823;DHT22;11074;48.596;9.238;2022-12-18T05:03:52;-7.70;99.90
21823;DHT22;11074;48.596;9.238;2022-12-18T05:06:18;-7.80;99.90
21823;DHT22;11074;48.596;9.238;2022-12-18T05:08:43;-7.80;99.90
21823;DHT22;11074;48.596;9.238;2022-12-18T05:11:12;-7.80;99.90
21823;DHT22;11074;48.596;9.238;2022-12-18T05:13:43;-7.70;99.90
21823;DHT22;11074;48.596;9.238;2022-12-18T05:16:10;-7.70;99.90
21823;DHT22;11074;48.596;9.238;2022-12-18T05:18:36;-7.70;99.90
21823;DHT22;11074;48.596;9.238;2022-12-18T05:21:02;-7.70;99.90
21823;DHT22;11074;48.596;9.238;2022-12-18T05:23:28;-7.80;99.90
21823;DHT22;11074;48.596;9.238;2022-12-18T05:25:57;-7.80;99.90
21823;DHT22;11074;48.596;9.238;2022-12-18T05:28:26;-7.70;99.90
21823;DHT22;11074;48.596;9.238;2022-12-18T05:30:54;-7.70;99.90
21823;DHT22;11074;48.596;9.238;2022-12-18T05:33:24;-7.70;99.90
21823;DHT22;11074;48.596;9.238;2022-12-18T05:35:52;-7.60;99.90
21823;DHT22;11074;48.596;9.238;2022-12-18T05:38:20;-7.50;99.90
21823;DHT22;11074;48.596;9.238;2022-12-18T05:40:52;-7.70;99.90
21823;DHT22;11074;48.596;9.238;2022-12-18T05:43:19;-7.90;99.90
21823;DHT22;11074;48.596;9.238;2022-12-18T05:45:47;-7.90;99.90
21823;DHT22;11074;48.596;9.238;2022-12-18T05:48:13;-8.00;99.90
21823;DHT22;11074;48.596;9.238;2022-12-18T05:50:41;-8.00;99.90
21823;DHT22;11074;48.596;9.238;2022-12-18T05:53:09;-8.00;99.90
21823;DHT22;11074;48.596;9.238;2022-12-18T05:55:36;-7.90;99.90
21823;DHT22;11074;48.596;9.238;2022-12-18T05:58:04;-7.80;99.90
21823;DHT22;11074;48.596;9.238;2022-12-18T06:00:33;-7.70;99.90
21823;DHT22;11074;48.596;9.238;2022-12-18T06:03:01;-7.70;99.90
21823;DHT22;11074;48.596;9.238;2022-12-18T06:05:27;-7.70;99.90
21823;DHT22;11074;48.596;9.238;2022-12-18T06:07:53;-7.80;99.90
21823;DHT22;11074;48.596;9.238;2022-12-18T06:10:19;-7.80;99.90
21823;DHT22;11074;48.596;9.238;2022-12-18T06:12:44;-7.90;99.90
21823;DHT22;11074;48.596;9.238;2022-12-18T06:15:10;-7.80;99.90
21823;DHT22;11074;48.596;9.238;2022-12-18T06:17:36;-7.90;99.90
21823;DHT22;11074;48.596;9.238;2022-12-18T06:20:04;-7.90;99.90
21823;DHT22;11074;48.596;9.238;2022-12-18T06:22:31;-7.90;99.90
21823;DHT22;11074;48.596;9.238;2022-12-18T06:24:57;-8.10;99.90
21823;DHT22;11074;48.596;9.238;2022-12-18T06:27:24;-8.10;99.90
21823;DHT22;11074;48.596;9.238;2022-12-18T06:29:50;-8.00;99.90
21823;DHT22;11074;48.596;9.238;2022-12-18T06:32:16;-8.10;99.90
21823;DHT22;11074;48.596;9.238;2022-12-18T06:34:42;-8.20;99.90
21823;DHT22;11074;48.596;9.238;2022-12-18T06:37:07;-8.10;99.90
21823;DHT22;11074;48.596;9.238;2022-12-18T06:39:33;-8.00;99.90
21823;DHT22;11074;48.596;9.238;2022-12-18T06:41:59;-8.00;99.90
21823;DHT22;11074;48.596;9.238;2022-12-18T06:44:24;-8.00;99.90
21823;DHT22;11074;48.596;9.238;2022-12-18T06:46:50;-8.10;99.90
21823;DHT22;11074;48.596;9.238;2022-12-18T06:49:16;-8.10;99.90
21823;DHT22;11074;48.596;9.238;2022-12-18T06:51:42;-8.10;99.90
21823;DHT22;11074;48.596;9.238;2022-12-18T06:54:08;-8.00;99.90
21823;DHT22;11074;48.596;9.238;2022-12-18T06:56:33;-8.00;99.90
21823;DHT22;11074;48.596;9.238;2022-12-18T06:58:59;-7.90;99.90
21823;DHT22;11074;48.596;9.238;2022-12-18T07:01:26;-8.00;99.90
21823;DHT22;11074;48.596;9.238;2022-12-18T07:03:53;-8.00;99.90
21823;DHT22;11074;48.596;9.238;2022-12-18T07:06:22;-7.80;99.90
21823;DHT22;11074;48.596;9.238;2022-12-18T07:08:50;-7.70;99.90
21823;DHT22;11074;48.596;9.238;2022-12-18T07:11:17;-7.90;99.90
21823;DHT22;11074;48.596;9.238;2022-12-18T07:13:43;-8.20;99.90
21823;DHT22;11074;48.596;9.238;2022-12-18T07:16:12;-8.30;99.90
21823;DHT22;11074;48.596;9.238;2022-12-18T07:18:42;-8.30;99.90
21823;DHT22;11074;48.596;9.238;2022-12-18T07:21:12;-8.30;99.90
21823;DHT22;11074;48.596;9.238;2022-12-18T07:23:41;-8.10;99.90
21823;DHT22;11074;48.596;9.238;2022-12-18T07:26:09;-7.90;99.90
21823;DHT22;11074;48.596;9.238;2022-12-18T07:28:40;-7.90;99.90
21823;DHT22;11074;48.596;9.238;2022-12-18T07:31:26;-7.80;99.90
21823;DHT22;11074;48.596;9.238;2022-12-18T07:33:52;-7.90;99.90
21823;DHT22;11074;48.596;9.238;2022-12-18T07:36:19;-8.10;99.90
21823;DHT22;11074;48.596;9.238;2022-12-18T07:38:47;-8.10;99.90
21823;DHT22;11074;48.596;9.238;2022-12-18T07:41:13;-8.10;99.90
21823;DHT22;11074;48.596;9.238;2022-12-18T07:43:40;-8.20;99.90
21823;DHT22;11074;48.596;9.238;2022-12-18T07:46:07;-8.20;99.90
21823;DHT22;11074;48.596;9.238;2022-12-18T07:48:33;-8.20;99.90
21823;DHT22;11074;48.596;9.238;2022-12-18T07:51:04;-8.30;99.90
21823;DHT22;11074;48.596;9.238;2022-12-18T07:53:32;-8.30;99.90
21823;DHT22;11074;48.596;9.238;2022-12-18T07:56:00;-8.20;99.90
21823;DHT22;11074;48.596;9.238;2022-12-18T07:58:29;-8.20;99.90
21823;DHT22;11074;48.596;9.238;2022-12-18T08:01:09;-8.00;99.90
21823;DHT22;11074;48.596;9.238;2022-12-18T08:03:37;-7.90;99.90
21823;DHT22;11074;48.596;9.238;2022-12-18T08:06:07;-8.10;99.90
21823;DHT22;11074;48.596;9.238;2022-12-18T08:08:35;-8.10;99.90
21823;DHT22;11074;48.596;9.238;2022-12-18T08:11:01;-8.00;99.90
21823;DHT22;11074;48.596;9.238;2022-12-18T08:13:27;-7.90;99.90
21823;DHT22;11074;48.596;9.238;2022-12-18T08:16:03;-7.80;99.90
21823;DHT22;11074;48.596;9.238;2022-12-18T08:18:33;-7.70;99.90
21823;DHT22;11074;48.596;9.238;2022-12-18T08:21:10;-7.60;99.90
21823;DHT22;11074;48.596;9.238;2022-12-18T08:23:41;-7.50;99.90
21823;DHT22;11074;48.596;9.238;2022-12-18T08:26:08;-7.50;99.90
21823;DHT22;11074;48.596;9.238;2022-12-18T08:28:34;-7.40;99.90
21823;DHT22;11074;48.596;9.238;2022-12-18T08:31:01;-7.40;99.90
21823;DHT22;11074;48.596;9.238;2022-12-18T08:33:26;-7.30;99.90
21823;DHT22;11074;48.596;9.238;2022-12-18T08:35:52;-7.30;99.90
21823;DHT22;11074;48.596;9.238;2022-12-18T08:38:18;-7.30;99.90
21823;DHT22;11074;48.596;9.238;2022-12-18T08:40:44;-7.20;99.90
21823;DHT22;11074;48.596;9.238;2022-12-18T08:43:10;-7.20;99.90
21823;DHT22;11074;48.596;9.238;2022-12-18T08:45:55;-7.20;99.90
21823;DHT22;11074;48.596;9.238;2022-12-18T08:48:21;-7.10;99.90
21823;DHT22;11074;48.596;9.238;2022-12-18T08:50:55;-7.10;99.90
21823;DHT22;11074;48.596;9.238;2022-12-18T08:53:21;-7.00;99.90
21823;DHT22;11074;48.596;9.238;2022-12-18T08:55:47;-7.00;99.90
21823;DHT22;11074;48.596;9.238;2022-12-18T08:58:12;-6.90;99.90
21823;DHT22;11074;48.596;9.238;2022-12-18T09:00:38;-6.90;99.90
21823;DHT22;11074;48.596;9.238;2022-12-18T09:03:03;-6.90;99.90
21823;DHT22;11074;48.596;9.238;2022-12-18T09:05:30;-6.90;99.90
21823;DHT22;11074;48.596;9.238;2022-12-18T09:07:56;-6.80;99.90
21823;DHT22;11074;48.596;9.238;2022-12-18T09:10:21;-6.80;99.90
21823;DHT22;11074;48.596;9.238;2022-12-18T09:12:47;-6.80;99.90
21823;DHT22;11074;48.596;9.238;2022-12-18T09:15:13;-6.70;99.90
21823;DHT22;11074;48.596;9.238;2022-12-18T09:17:38;-6.60;99.90
21823;DHT22;11074;48.596;9.238;2022-12-18T09:20:04;-6.60;99.90
21823;DHT22;11074;48.596;9.238;2022-12-18T09:22:30;-6.60;99.90
21823;DHT22;11074;48.596;9.238;2022-12-18T09:24:56;-6.50;99.90
21823;DHT22;11074;48.596;9.238;2022-12-18T09:27:22;-6.50;99.90
21823;DHT22;11074;48.596;9.238;2022-12-18T09:29:47;-6.50;99.90
21823;DHT22;11074;48.596;9.238;2022-12-18T09:32:13;-6.30;99.90
21823;DHT22;11074;48.596;9.238;2022-12-18T09:34:39;-6.40;99.90
21823;DHT22;11074;48.596;9.238;2022-12-18T09:37:05;-6.30;99.90
21823;DHT22;11074;48.596;9.238;2022-12-18T09:39:31;-6.30;99.90
21823;DHT22;11074;48.596;9.238;2022-12-18T09:41:57;-6.20;99.90
21823;DHT22;11074;48.596;9.238;2022-12-18T09:50:05;-6.10;99.90
21823;DHT22;11074;48.596;9.238;2022-12-18T09:52:55;-6.10;99.90
21823;DHT22;11074;48.596;9.238;2022-12-18T09:55:34;-6.00;99.90
21823;DHT22;11074;48.596;9.238;2022-12-18T09:58:30;-6.00;99.90
21823;DHT22;11074;48.596;9.238;2022-12-18T10:01:01;-5.90;99.90
21823;DHT22;11074;48.596;9.238;2022-12-18T10:03:27;-5.80;99.90
21823;DHT22;11074;48.596;9.238;2022-12-18T10:08:52;-5.80;99.90
21823;DHT22;11074;48.596;9.238;2022-12-18T10:12:04;-5.80;99.90
21823;DHT22;11074;48.596;9.238;2022-12-18T10:17:56;-5.70;99.90
21823;DHT22;11074;48.596;9.238;2022-12-18T10:20:49;-5.70;99.90
21823;DHT22;11074;48.596;9.238;2022-12-18T10:26:25;-5.50;99.90
21823;DHT22;11074;48.596;9.238;2022-12-18T10:28:51;-5.50;99.90
21823;DHT22;11074;48.596;9.238;2022-12-18T10:31:21;-5.50;99.90
21823;DHT22;11074;48.596;9.238;2022-12-18T10:33:49;-5.40;99.90
21823;DHT22;11074;48.596;9.238;2022-12-18T10:36:14;-5.40;99.90
21823;DHT22;11074;48.596;9.238;2022-12-18T10:38:40;-5.40;99.90
21823;DHT22;11074;48.596;9.238;2022-12-18T10:41:26;-5.30;99.90
21823;DHT22;11074;48.596;9.238;2022-12-18T10:44:20;-5.20;99.90
21823;DHT22;11074;48.596;9.238;2022-12-18T10:46:50;-5.20;99.90
21823;DHT22;11074;48.596;9.238;2022-12-18T10:49:30;-5.10;99.90
21823;DHT22;11074;48.596;9.238;2022-12-18T10:52:15;-5.10;99.90
21823;DHT22;11074;48.596;9.238;2022-12-18T10:54:49;-5.10;99.90
21823;DHT22;11074;48.596;9.238;2022-12-18T11:02:37;-4.90;99.90
21823;DHT22;11074;48.596;9.238;2022-12-18T11:05:29;-4.80;99.90
21823;DHT22;11074;48.596;9.238;2022-12-18T11:07:58;-4.70;99.90
21823;DHT22;11074;48.596;9.238;2022-12-18T11:10:40;-4.70;99.90
21823;DHT22;11074;48.596;9.238;2022-12-18T11:13:21;-4.70;99.90
21823;DHT22;11074;48.596;9.238;2022-12-18T11:15:49;-4.60;99.90
21823;DHT22;11074;48.596;9.238;2022-12-18T11:18:30;-4.60;99.90
21823;DHT22;11074;48.596;9.238;2022-12-18T11:21:09;-4.60;99.90
21823;DHT22;11074;48.596;9.238;2022-12-18T11:23:50;-4.60;99.90
21823;DHT22;11074;48.596;9.238;2022-12-18T11:26:18;-4.50;99.90
21823;DHT22;11074;48.596;9.238;2022-12-18T11:29:07;-4.50;99.90
21823;DHT22;11074;48.596;9.238;2022-12-18T11:31:34;-4.40;99.90
21823;DHT22;11074;48.596;9.238;2022-12-18T11:36:32;-4.30;99.90
21823;DHT22;11074;48.596;9.238;2022-12-18T11:39:11;-4.20;99.90
21823;DHT22;11074;48.596;9.238;2022-12-18T11:42:10;-4.20;99.90
21823;DHT22;11074;48.596;9.238;2022-12-18T11:44:47;-4.20;99.90
21823;DHT22;11074;48.596;9.238;2022-12-18T11:47:56;-4.20;99.90
21823;DHT22;11074;48.596;9.238;2022-12-18T11:50:31;-4.20;99.90
21823;DHT22;11074;48.596;9.238;2022-12-18T11:53:10;-4.10;99.90
21823;DHT22;11074;48.596;9.238;2022-12-18T11:55:47;-4.10;99.90
21823;DHT22;11074;48.596;9.238;2022-12-18T11:58:34;-4.10;99.90
21823;DHT22;11074;48.596;9.238;2022-12-18T12:10:15;-3.60;99.90
21823;DHT22;11074;48.596;9.238;2022-12-18T12:13:16;-3.50;99.90
21823;DHT22;11074;48.596;9.238;2022-12-18T12:16:12;-3.40;99.90
21823;DHT22;11074;48.596;9.238;2022-12-18T12:21:34;-3.10;99.90
21823;DHT22;11074;48.596;9.238;2022-12-18T12:33:08;-2.90;99.90
21823;DHT22;11074;48.596;9.238;2022-12-18T12:35:32;-3.00;99.90
21823;DHT22;11074;48.596;9.238;2022-12-18T12:38:16;-3.00;99.90
21823;DHT22;11074;48.596;9.238;2022-12-18T12:40:58;-2.90;99.90
21823;DHT22;11074;48.596;9.238;2022-12-18T12:43:38;-2.90;99.90
21823;DHT22;11074;48.596;9.238;2022-12-18T12:46:11;-2.90;99.90
21823;DHT22;11074;48.596;9.238;2022-12-18T12:49:01;-2.90;99.90
21823;DHT22;11074;48.596;9.238;2022-12-18T12:54:02;-2.80;99.90
21823;DHT22;11074;48.596;9.238;2022-12-18T13:00:01;-2.70;99.90
21823;DHT22;11074;48.596;9.238;2022-12-18T13:05:44;-2.60;99.90
21823;DHT22;11074;48.596;9.238;2022-12-18T13:08:26;-2.50;99.90
21823;DHT22;11074;48.596;9.238;2022-12-18T13:10:58;-2.50;99.90
21823;DHT22;11074;48.596;9.238;2022-12-18T13:13:52;-2.40;99.90
21823;DHT22;11074;48.596;9.238;2022-12-18T13:16:22;-2.40;99.90
21823;DHT22;11074;48.596;9.238;2022-12-18T13:18:54;-2.30;99.90
21823;DHT22;11074;48.596;9.238;2022-12-18T13:21:32;-2.20;99.90
21823;DHT22;11074;48.596;9.238;2022-12-18T13:24:28;-2.20;99.90
21823;DHT22;11074;48.596;9.238;2022-12-18T13:26:56;-2.10;99.90
21823;DHT22;11074;48.596;9.238;2022-12-18T13:29:42;-2.10;99.90
21823;DHT22;11074;48.596;9.238;2022-12-18T13:32:24;-2.10;99.90
21823;DHT22;11074;48.596;9.238;2022-12-18T13:37:53;-2.00;99.90
21823;DHT22;11074;48.596;9.238;2022-12-18T13:48:55;-1.80;99.90
21823;DHT22;11074;48.596;9.238;2022-12-18T13:51:22;-1.80;99.90
21823;DHT22;11074;48.596;9.238;2022-12-18T13:53:52;-1.80;99.90
21823;DHT22;11074;48.596;9.238;2022-12-18T13:56:26;-1.80;99.90
21823;DHT22;11074;48.596;9.238;2022-12-18T13:59:04;-1.60;99.90
21823;DHT22;11074;48.596;9.238;2022-12-18T14:01:56;-1.60;99.90
21823;DHT22;11074;48.596;9.238;2022-12-18T14:04:28;-1.50;99.90
21823;DHT22;11074;48.596;9.238;2022-12-18T14:06:58;-1.50;99.90
21823;DHT22;11074;48.596;9.238;2022-12-18T14:09:30;-1.40;99.90
21823;DHT22;11074;48.596;9.238;2022-12-18T14:12:00;-1.40;99.90
21823;DHT22;11074;48.596;9.238;2022-12-18T14:14:47;-1.40;99.90
21823;DHT22;11074;48.596;9.238;2022-12-18T14:17:16;-1.50;99.90
21823;DHT22;11074;48.596;9.238;2022-12-18T14:19:47;-1.60;99.90
21823;DHT22;11074;48.596;9.238;2022-12-18T14:22:21;-1.60;99.90
21823;DHT22;11074;48.596;9.238;2022-12-18T14:27:41;-1.80;99.90
21823;DHT22;11074;48.596;9.238;2022-12-18T14:30:25;-1.90;99.90
21823;DHT22;11074;48.596;9.238;2022-12-18T14:33:14;-2.10;99.90
21823;DHT22;11074;48.596;9.238;2022-12-18T14:35:51;-2.20;99.90
21823;DHT22;11074;48.596;9.238;2022-12-18T14:38:35;-2.30;99.90
21823;DHT22;11074;48.596;9.238;2022-12-18T14:41:11;-2.40;99.90
21823;DHT22;11074;48.596;9.238;2022-12-18T14:43:40;-2.40;99.90
21823;DHT22;11074;48.596;9.238;2022-12-18T14:48:59;-2.60;99.90
21823;DHT22;11074;48.596;9.238;2022-12-18T14:51:33;-2.60;99.90
21823;DHT22;11074;48.596;9.238;2022-12-18T14:54:04;-2.60;99.90
21823;DHT22;11074;48.596;9.238;2022-12-18T14:57:00;-2.70;99.90
21823;DHT22;11074;48.596;9.238;2022-12-18T14:59:28;-2.80;99.90
21823;DHT22;11074;48.596;9.238;2022-12-18T15:01:59;-2.80;99.90
21823;DHT22;11074;48.596;9.238;2022-12-18T15:04:38;-2.90;99.90
21823;DHT22;11074;48.596;9.238;2022-12-18T15:07:18;-3.00;99.90
21823;DHT22;11074;48.596;9.238;2022-12-18T15:10:14;-3.00;99.90
21823;DHT22;11074;48.596;9.238;2022-12-18T15:20:41;-3.40;99.90
21823;DHT22;11074;48.596;9.238;2022-12-18T15:23:25;-3.60;99.90
21823;DHT22;11074;48.596;9.238;2022-12-18T15:26:05;-3.60;99.90
21823;DHT22;11074;48.596;9.238;2022-12-18T15:28:50;-3.60;99.90
21823;DHT22;11074;48.596;9.238;2022-12-18T15:36:21;-3.80;99.90
21823;DHT22;11074;48.596;9.238;2022-12-18T15:38:50;-3.80;99.90
21823;DHT22;11074;48.596;9.238;2022-12-18T15:41:19;-3.90;99.90
21823;DHT22;11074;48.596;9.238;2022-12-18T15:43:48;-3.90;99.90
21823;DHT22;11074;48.596;9.238;2022-12-18T15:46:20;-4.00;99.90
21823;DHT22;11074;48.596;9.238;2022-12-18T15:48:53;-4.00;99.90
21823;DHT22;11074;48.596;9.238;2022-12-18T15:51:23;-4.10;99.90
21823;DHT22;11074;48.596;9.238;2022-12-18T15:53:55;-4.00;99.90
21823;DHT22;11074;48.596;9.238;2022-12-18T15:56:23;-4.10;99.90
21823;DHT22;11074;48.596;9.238;2022-12-18T15:59:11;-4.10;99.90
21823;DHT22;11074;48.596;9.238;2022-12-18T16:01:41;-4.00;99.90
21823;DHT22;11074;48.596;9.238;2022-12-18T16:04:12;-4.00;99.90
21823;DHT22;11074;48.596;9.238;2022-12-18T16:06:39;-4.00;99.90
21823;DHT22;11074;48.596;9.238;2022-12-18T16:09:05;-3.90;99.90
21823;DHT22;11074;48.596;9.238;2022-12-18T16:11:33;-3.90;99.90
21823;DHT22;11074;48.596;9.238;2022-12-18T16:14:24;-3.90;99.90
21823;DHT22;11074;48.596;9.238;2022-12-18T16:17:03;-3.90;99.90
21823;DHT22;11074;48.596;9.238;2022-12-18T16:19:34;-3.90;99.90
21823;DHT22;11074;48.596;9.238;2022-12-18T16:21:59;-3.90;99.90
21823;DHT22;11074;48.596;9.238;2022-12-18T16:24:28;-3.90;99.90
21823;DHT22;11074;48.596;9.238;2022-12-18T16:26:57;-3.90;99.90
21823;DHT22;11074;48.596;9.238;2022-12-18T16:29:25;-3.90;99.90
21823;DHT22;11074;48.596;9.238;2022-12-18T16:32:02;-3.90;99.90
21823;DHT22;11074;48.596;9.238;2022-12-18T16:34:33;-3.90;99.90
21823;DHT22;11074;48.596;9.238;2022-12-18T16:37:07;-3.90;99.90
21823;DHT22;11074;48.596;9.238;2022-12-18T16:39:34;-3.90;99.90
21823;DHT22;11074;48.596;9.238;2022-12-18T16:42:15;-3.90;99.90
21823;DHT22;11074;48.596;9.238;2022-12-18T16:44:45;-3.90;99.90
21823;DHT22;11074;48.596;9.238;2022-12-18T16:47:12;-3.90;99.90
21823;DHT22;11074;48.596;9.238;2022-12-18T16:49:38;-4.00;99.90
21823;DHT22;11074;48.596;9.238;2022-12-18T16:52:05;-3.90;99.90
21823;DHT22;11074;48.596;9.238;2022-12-18T16:54:31;-3.90;99.90
21823;DHT22;11074;48.596;9.238;2022-12-18T16:56:59;-3.80;99.90
21823;DHT22;11074;48.596;9.238;2022-12-18T16:59:26;-3.80;99.90
21823;DHT22;11074;48.596;9.238;2022-12-18T17:01:52;-3.80;99.90
21823;DHT22;11074;48.596;9.238;2022-12-18T17:04:17;-3.80;99.90
21823;DHT22;11074;48.596;9.238;2022-12-18T17:06:44;-3.80;99.90
21823;DHT22;11074;48.596;9.238;2022-12-18T17:09:16;-3.80;99.90
21823;DHT22;11074;48.596;9.238;2022-12-18T17:11:47;-3.80;99.90
21823;DHT22;11074;48.596;9.238;2022-12-18T17:14:15;-3.80;99.90
21823;DHT22;11074;48.596;9.238;2022-12-18T17:16:46;-3.80;99.90
21823;DHT22;11074;48.596;9.238;2022-12-18T17:19:12;-3.80;99.90
21823;DHT22;11074;48.596;9.238;2022-12-18T17:21:39;-3.80;99.90
21823;DHT22;11074;48.596;9.238;2022-12-18T17:24:05;-3.80;99.90
21823;DHT22;11074;48.596;9.238;2022-12-18T17:26:31;-3.80;99.90
21823;DHT22;11074;48.596;9.238;2022-12-18T17:28:57;-3.80;99.90
21823;DHT22;11074;48.596;9.238;2022-12-18T17:31:26;-3.70;99.90
21823;DHT22;11074;48.596;9.238;2022-12-18T17:33:54;-3.70;99.90
21823;DHT22;11074;48.596;9.238;2022-12-18T17:36:21;-3.70;99.90
21823;DHT22;11074;48.596;9.238;2022-12-18T17:38:55;-3.70;99.90
21823;DHT22;11074;48.596;9.238;2022-12-18T17:41:24;-3.60;99.90
21823;DHT22;11074;48.596;9.238;2022-12-18T17:44:01;-3.60;99.90
21823;DHT22;11074;48.596;9.238;2022-12-18T17:46:31;-3.60;99.90
21823;DHT22;11074;48.596;9.238;2022-12-18T17:48:58;-3.60;99.90